Tiempo atmosférico en la estación meteorológica de Barx, València/Valencia (340 m.)



Fecha
DESCASC
Temp. máxima en grados centígrados (hora)
DESCASC
Temp. mínima en grados centígrados (hora)
DESCASC
Temp. media en grados centígrados
DESCASC
Racha de viento máxima en m/sg (hora)
DESCASC
Velocidad máxima media en intervalos de 10 minutos(hora)
DESCASC
Precipitaciones diarias en mm
DESCASC
Precipitaciones de 00:00 a 06:00 en mm
DESCASC
Precipitaciones de 06:00 a 12:00 en mm
DESCASC
Precipitaciones de 12:00 a 18:00 en mm
DESCASC
Precipitaciones de 18:00 a 24:00 en mm
DESCASC
22-04-2019 13 (23:59) 9.8 (08:20) 11.4 13.61 (02:20) 7.5 (02:40) 31.4 20.6 8.6 2.2 0
21-04-2019 11.5 (04:00) 9.8 (07:30) 10.7 17.22 (17:10) 9.17 (14:20) 165 0.2 15 19.6 130.2
20-04-2019 12.5 (00:00) 10.4 (23:59) 11.4 18.33 (22:10) 10 (21:30) 59.6 11.2 36.8 8 3.6
19-04-2019 12.9 (14:40) 10.7 (07:00) 11.8 11.67 (17:20) 3.89 (15:50) 60.2 5.6 1.2 20.4 33
18-04-2019 13.5 (17:50) 10.6 (00:00) 12.1 9.17 (06:00) 4.17 (08:50) 40.4 0 2 33.4 5
17-04-2019 16.4 (14:20) 11.8 (00:00) 14.1 7.78 (15:00) 4.17 (14:20) 0 0 0 0 0
16-04-2019 20.1 (15:30) 10.1 (00:00) 15.1 7.5 (18:10) 4.72 (18:10) 0 0 0 0 0
15-04-2019 -- (--) -- (--) -- -- (--) -- (--) 0 0 0 0 0
14-04-2019 27.7 (16:40) 10.1 (00:00) 18.9 7.5 (09:00) 3.33 (09:40) 0 0 0 0 0
13-04-2019 21.5 (17:40) 6.4 (00:00) 14 7.5 (19:30) 4.44 (19:10) 0 0 0 0 0
12-04-2019 19.6 (15:30) 6.5 (05:00) 13.1 8.33 (18:10) 5.28 (19:10) 0 0 0 0 0
11-04-2019 20.6 (16:10) 6.4 (00:00) 13.5 6.67 (17:00) 4.17 (17:10) 0 0 0 0 0
10-04-2019 18.4 (15:50) 7.6 (00:00) 13 13.06 (16:10) 7.22 (16:10) 1.2 0 0 1.2 0
09-04-2019 18.2 (16:20) 10.4 (00:00) 14.3 13.89 (15:30) 6.39 (10:10) 0.8 0 0 0 0.8
08-04-2019 20.6 (17:00) 11.9 (00:00) 16.3 10.56 (14:10) 5 (14:10) 0 0 0 0 0
07-04-2019 17.8 (17:10) 7.6 (00:00) 12.7 12.78 (13:30) 6.94 (12:20) 0 0 0 0 0
06-04-2019 14 (14:10) 7.3 (00:00) 10.7 11.39 (11:10) 6.11 (11:20) 0.8 0 0 0.8 0
05-04-2019 -- (--) -- (--) -- -- (--) -- (--) 10.2 0 0 8.4 1.8
04-04-2019 -- (--) -- (--) -- -- (--) -- (--) 0 0 0 0 0
03-04-2019 22.2 (16:30) 10.2 (05:00) 16.2 9.44 (15:30) 5.28 (20:40) 0 0 0 0 0
02-04-2019 20.1 (15:00) 8.5 (00:00) 14.3 10 (18:10) 6.67 (18:10) 1 0 0 0 1
01-04-2019 12.1 (17:40) 9.3 (00:00) 10.7 6.39 (00:20) 3.06 (13:10) 30 12.2 17.4 0.4 0
31-03-2019 11.4 (23:40) 8.7 (00:00) 10 10.83 (19:30) 4.44 (18:10) 92.4 0.2 29.4 33.2 29.6
30-03-2019 13.2 (16:50) 4.5 (00:00) 8.8 5.28 (10:30) 2.78 (10:30) 0 0 0 0 0
29-03-2019 15.9 (13:10) 4.1 (00:00) 10 8.06 (14:20) 3.61 (14:20) 0 0 0 0 0
28-03-2019 18.1 (14:30) 2.4 (00:00) 10.3 7.5 (19:00) 4.72 (17:50) 0 0 0 0 0
27-03-2019 16.6 (12:50) 3.2 (00:00) 9.9 8.33 (13:30) 4.17 (13:20) 0 0 0 0 0
26-03-2019 16.4 (15:50) 4.2 (00:00) 10.3 10.56 (19:00) 5.28 (19:00) 0 0 0 0 0
25-03-2019 22.1 (13:50) 5.8 (00:00) 14 8.06 (13:10) 3.89 (20:40) 0 0 0 0 0

Gráficas

Temp. máximas Temp. mínimas Temp. medias Precipitaciones Rachas de viento máximas Velocidades máximas media en intervalos de 10 minutos

Datos horarios

Fecha y hora oficial Temperatura (ºC) Velocidad del viento (km/h) Dirección del viento Racha (km/h) Dirección de racha Precipitación (mm) Presión (hPa) Tendencia (hPa) Humedad (%)
2019-04-23 23:00:00 11.3 9 Sudoeste 29 Oeste 0 -- -- 64
2019-04-23 22:00:00 12.9 8 Norte 16 Norte 0 -- -- 69
2019-04-23 21:00:00 13.5 9 Norte 21 Norte 0 -- -- 75
2019-04-23 20:00:00 14.8 4 Sur 13 Norte 0 -- -- 72
2019-04-23 19:00:00 14.1 4 Norte 21 Sur 0 -- -- 87
2019-04-23 18:00:00 14.3 8 Sur 14 Sudoeste 0.2 -- -- 85
2019-04-23 17:00:00 13.6 0 Calma 26 Norte 0.4 -- -- 88
2019-04-23 16:00:00 14.7 20 Norte 33 Noroeste 0 -- -- 80
2019-04-23 15:00:00 19.4 8 Noroeste 21 Noroeste 0 -- -- 48
2019-04-23 14:00:00 19.7 8 Norte 19 Noroeste 0 -- -- 51
2019-04-23 13:00:00 19.2 7 Noroeste 14 Noroeste 0 -- -- 55
2019-04-23 12:00:00 18.8 7 Sur 23 Sudoeste 0 -- -- 55
2019-04-23 11:00:00 16.8 5 Oeste 20 Oeste 0 -- -- 61
2019-04-23 10:00:00 14 8 Sudoeste 18 Oeste 0 -- -- 68
2019-04-23 09:00:00 13.2 7 Sudoeste 15 Oeste 0 -- -- 73
2019-04-23 08:00:00 12.6 7 Sudoeste 20 Sudoeste 0 -- -- 76
2019-04-23 07:00:00 11.8 3 Sudeste 14 Sudoeste 0 -- -- 82
2019-04-23 06:00:00 10.3 2 Sur 6 Sur 0 -- -- 91
2019-04-23 05:00:00 10.9 0 Calma 6 Sudeste 0 -- -- 88
2019-04-23 04:00:00 11.3 4 Sudeste 9 Sudoeste 0 -- -- 86
2019-04-23 03:00:00 11.6 2 Sudoeste 9 Sudeste 0 -- -- 86
2019-04-23 02:00:00 11.5 4 Sudeste 9 Sur 0 -- -- 89
2019-04-23 01:00:00 12.5 2 Sudeste 11 Sudoeste 0 -- -- 88
2019-04-23 00:00:00 13 4 Sur 12 Sur 0 -- -- 85
2019-04-22 23:00:00 12.3 3 Sudeste 10 Sur 0 -- -- 89
2019-04-22 22:00:00 11.9 5 Sudeste 8 Sur 0 -- -- 89
2019-04-22 21:00:00 11.7 4 Sur 9 Sudeste 0 -- -- 99
2019-04-22 20:00:00 12.2 0 Calma 6 Oeste 0 -- -- 100
2019-04-22 19:00:00 12.5 3 Norte 7 Norte 0 -- -- 100
2019-04-22 18:00:00 12.3 2 Sudeste 4 Nordeste 0 -- -- 100
2019-04-22 17:00:00 12.1 2 Nordeste 10 Norte 0 -- -- 100
2019-04-22 16:00:00 11.5 5 Norte 11 Norte 0 -- -- 100
2019-04-22 15:00:00 10.9 4 Norte 10 Noroeste 0 -- -- 100
2019-04-22 14:00:00 10.3 3 Norte 13 Noroeste 0.8 -- -- 100
2019-04-22 13:00:00 10 3 Norte 14 Noroeste 1.4 -- -- 100
2019-04-22 12:00:00 10.4 7 Norte 15 Norte 1.4 -- -- 100
2019-04-22 11:00:00 10.6 7 Nordeste 15 Nordeste 0.4 -- -- 100
2019-04-22 10:00:00 10.5 6 Noroeste 19 Norte 0.6 -- -- 100
2019-04-22 09:00:00 10 8 Noroeste 32 Nordeste 2.6 -- -- 100
2019-04-22 08:00:00 10 19 Norte 42 Norte 3.4 -- -- 100
2019-04-22 07:00:00 10 7 Norte 28 Norte 0.2 -- -- 100
2019-04-22 06:00:00 10.2 7 Norte 36 Norte 0.2 -- -- 100
2019-04-22 05:00:00 10.2 8 Norte 37 Norte 0.4 -- -- 100
2019-04-22 04:00:00 10.5 17 Norte 35 Nordeste 5 -- -- 100
2019-04-22 03:00:00 10.4 15 Norte 49 Nordeste 5.6 -- -- 100
2019-04-22 02:00:00 10.5 16 Norte 41 Norte 2.4 -- -- 100
2019-04-22 01:00:00 10.7 12 Norte 40 Norte 7 -- -- 100
2019-04-22 00:00:00 10.7 12 Norte 52 Norte 27.8 -- -- 100
2019-04-21 23:00:00 10.5 6 Norte 17 Norte 18.6 -- -- 100
2019-04-21 22:00:00 10.3 9 Norte 27 Norte 13.4 -- -- 100
2019-04-21 21:00:00 10.4 9 Norte 21 Norte 28.6 -- -- 100
2019-04-21 20:00:00 10.2 5 Noroeste 39 Norte 32 -- -- 100
2019-04-21 19:00:00 9.8 18 Norte 58 Norte 9.8 -- -- 100
2019-04-21 18:00:00 10.2 26 Norte 62 Norte 9.2 -- -- 100
2019-04-21 17:00:00 10.3 29 Norte 55 Nordeste 6 -- -- 100
2019-04-21 16:00:00 10.4 23 Norte 53 Nordeste 0.6 -- -- 100
2019-04-21 15:00:00 11.2 29 Norte 58 Norte 0.2 -- -- 100
2019-04-21 14:00:00 10.8 31 Norte 57 Norte 2.2 -- -- 100
2019-04-21 13:00:00 10.7 30 Norte 53 Norte 1.4 -- -- 100
2019-04-21 12:00:00 10.9 29 Norte 49 Nordeste 0.6 -- -- 100
2019-04-21 11:00:00 10.7 25 Norte 49 Norte 1.8 -- -- 100
2019-04-21 10:00:00 10.3 17 Norte 43 Norte 3.6 -- -- 100
2019-04-21 09:00:00 10.3 18 Norte 42 Norte 1.2 -- -- 100
2019-04-21 08:00:00 9.8 12 Norte 41 Norte 5.8 -- -- 100
2019-04-21 07:00:00 10.1 19 Norte 53 Norte 2 -- -- 100
2019-04-21 06:00:00 10.9 19 Norte 51 Norte 0 -- -- 92
2019-04-21 05:00:00 11.4 21 Norte 48 Norte 0 -- -- 86
2019-04-21 04:00:00 11.5 27 Norte 44 Nordeste 0 -- -- 84
2019-04-21 03:00:00 11.2 18 Norte 47 Norte 0 -- -- 97
2019-04-21 02:00:00 10.9 21 Norte 40 Nordeste 0 -- -- 98
2019-04-21 01:00:00 10.3 17 Norte 44 Norte 0.2 -- -- 100
2019-04-21 00:00:00 10.4 20 Norte 53 Norte 0.2 -- -- 100
2019-04-20 23:00:00 11.1 32 Norte 66 Nordeste 2 -- -- 100
2019-04-20 22:00:00 11.3 30 Norte 63 Norte 1.4 -- -- 100
2019-04-20 21:00:00 11.7 29 Norte 60 Norte 0 -- -- 96
2019-04-20 20:00:00 11.9 29 Norte 54 Norte 0 -- -- 97
2019-04-20 19:00:00 11.9 30 Norte 59 Norte 0 -- -- 99
2019-04-20 18:00:00 11.8 21 Norte 53 Nordeste 0 -- -- 100
2019-04-20 17:00:00 11.6 27 Norte 59 Norte 0 -- -- 100
2019-04-20 16:00:00 11.5 31 Norte 59 Nordeste 0 -- -- 100
2019-04-20 15:00:00 11.5 21 Norte 55 Norte 0 -- -- 100
2019-04-20 14:00:00 11.5 21 Norte 58 Norte 0.2 -- -- 100
2019-04-20 13:00:00 11.5 16 Noroeste 44 Sur 7.8 -- -- 100
2019-04-20 12:00:00 11.5 13 Sur 33 Sur 12.8 -- -- 100
2019-04-20 11:00:00 11.4 18 Noroeste 52 Norte 9.4 -- -- 100
2019-04-20 10:00:00 11.3 14 Noroeste 52 Norte 6.8 -- -- 100
2019-04-20 09:00:00 11.4 22 Norte 56 Norte 5 -- -- 100
2019-04-20 08:00:00 11.7 10 Noroeste 50 Norte 2.2 -- -- 100
2019-04-20 07:00:00 11.7 19 Norte 51 Norte 0.6 -- -- 100
2019-04-20 06:00:00 11.7 18 Noroeste 53 Norte 0.2 -- -- 100
2019-04-20 05:00:00 11.8 18 Norte 48 Norte 0.2 -- -- 100
2019-04-20 04:00:00 11.8 21 Norte 52 Norte 3.6 -- -- 100
2019-04-20 03:00:00 12 14 Noroeste 59 Nordeste 3.2 -- -- 100
2019-04-20 02:00:00 12 24 Norte 63 Norte 2.4 -- -- 100
2019-04-20 01:00:00 12.3 15 Sudoeste 43 Norte 1.6 -- -- 100
2019-04-20 00:00:00 12.5 10 Oeste 37 Noroeste 9.4 -- -- 100
2019-04-19 23:00:00 12.6 9 Sur 38 Sudeste 5.8 -- -- 100
2019-04-19 22:00:00 12.6 8 Sudoeste 32 Nordeste 0.2 -- -- 100
2019-04-19 21:00:00 12.7 11 Sur 33 Este 2.8 -- -- 100
2019-04-19 20:00:00 12.7 9 Este 29 Norte 6.4 -- -- 100
2019-04-19 19:00:00 12.8 6 Nordeste 32 Sudeste 8.4 -- -- 100
2019-04-19 18:00:00 12.7 13 Sudeste 42 Sudeste 3.8 -- -- 100
2019-04-19 17:00:00 12.7 14 Sudeste 32 Sur 6.2 -- -- 100
2019-04-19 16:00:00 12.8 9 Este 35 Sur 2.4 -- -- 100
2019-04-19 15:00:00 12.7 12 Sudeste 30 Sudeste 1.8 -- -- 100
2019-04-19 14:00:00 12.5 8 Nordeste 32 Nordeste 3.4 -- -- 100
2019-04-19 13:00:00 10.8 3 Nordeste 5 Nordeste 2.8 -- -- 100
2019-04-19 12:00:00 11.2 0 Calma 7 Norte 1 -- -- 99
2019-04-19 11:00:00 11.5 2 Este 6 Oeste 0 -- -- 95
2019-04-19 10:00:00 11.2 0 Calma 4 Oeste 0.2 -- -- 98
2019-04-19 09:00:00 11 0 Calma 3 Noroeste 0 -- -- 99
2019-04-19 08:00:00 10.8 0 Calma 6 Nordeste 0 -- -- 99
2019-04-19 07:00:00 10.7 2 Noroeste 10 Noroeste 0 -- -- 100
2019-04-19 06:00:00 11.1 0 Calma 5 Oeste 0 -- -- 100
2019-04-19 05:00:00 11.2 3 Sur 5 Sudoeste 0 -- -- 100
2019-04-19 04:00:00 11.2 0 Calma 13 Oeste 0.8 -- -- 100
2019-04-19 03:00:00 11.5 2 Noroeste 17 Noroeste 1 -- -- 99
2019-04-19 02:00:00 11.5 3 Sudeste 20 Sudeste 1.4 -- -- 99
2019-04-19 01:00:00 11.3 3 Sur 11 Norte 2.4 -- -- 100
2019-04-19 00:00:00 11.1 3 Sudoeste 12 Sudeste 1.6 -- -- 100
2019-04-18 23:00:00 10.7 3 Nordeste 21 Noroeste 0.4 -- -- 100
2019-04-18 22:00:00 10.8 3 Sur 13 Noroeste 0.6 -- -- 100
2019-04-18 21:00:00 10.7 3 Nordeste 10 Noroeste 0.4 -- -- 100
2019-04-18 20:00:00 10.7 6 Noroeste 30 Oeste 0.4 -- -- 100
2019-04-18 19:00:00 12.5 10 Sudoeste 21 Sudoeste 1.6 -- -- 100
2019-04-18 18:00:00 13.4 4 Noroeste 12 Norte 1.6 -- -- 100
2019-04-18 17:00:00 13.1 8 Norte 17 Norte 4.6 -- -- 100
2019-04-18 16:00:00 12.9 8 Norte 21 Nordeste 6.8 -- -- 100
2019-04-18 15:00:00 12.8 4 Nordeste 19 Sudeste 4.8 -- -- 100
2019-04-18 14:00:00 12.5 9 Norte 32 Norte 8 -- -- 100
2019-04-18 13:00:00 12.2 8 Noroeste 33 Norte 7.6 -- -- 100
2019-04-18 12:00:00 12.2 11 Nordeste 33 Norte 2 -- -- 98
2019-04-18 11:00:00 12.5 9 Norte 32 Norte 0 -- -- 97
2019-04-18 10:00:00 12.4 9 Norte 29 Noroeste 0 -- -- 96
2019-04-18 09:00:00 12.5 8 Oeste 32 Noroeste 0 -- -- 95
2019-04-18 08:00:00 12.4 10 Noroeste 33 Sudoeste 0 -- -- 95
2019-04-18 07:00:00 12 9 Norte 23 Nordeste 0 -- -- 94
2019-04-18 06:00:00 12 14 Norte 33 Norte 0 -- -- 89
2019-04-18 05:00:00 12.1 5 Norte 21 Norte 0 -- -- 89
2019-04-18 04:00:00 12.1 6 Norte 15 Norte 0 -- -- 92
2019-04-18 03:00:00 12.2 7 Norte 26 Norte 0 -- -- 93
2019-04-18 02:00:00 12.3 7 Nordeste 15 Norte 0 -- -- 93
2019-04-18 01:00:00 12.2 11 Norte 20 Norte 0 -- -- 96
2019-04-18 00:00:00 12.4 9 Norte 21 Norte 0 -- -- 96
2019-04-17 23:00:00 12.6 5 Norte 17 Norte 0 -- -- 92
2019-04-17 22:00:00 12.7 5 Nordeste 20 Sudeste 0 -- -- 92
2019-04-17 21:00:00 12.9 4 Este 16 Este 0 -- -- 89
2019-04-17 20:00:00 13.4 4 Nordeste 12 Este 0 -- -- 87
2019-04-17 19:00:00 13.6 5 Este 21 Nordeste 0 -- -- 85
2019-04-17 18:00:00 14.3 6 Nordeste 17 Sudeste 0 -- -- 81
2019-04-17 17:00:00 14.8 8 Este 21 Sudeste 0 -- -- 79
2019-04-17 16:00:00 15.3 13 Nordeste 26 Nordeste 0 -- -- 77
2019-04-17 15:00:00 15.9 14 Norte 28 Norte 0 -- -- 73
2019-04-17 14:00:00 16.2 13 Nordeste 21 Norte 0 -- -- 76
2019-04-17 13:00:00 15.2 11 Nordeste 24 Nordeste 0 -- -- 80
2019-04-17 12:00:00 15.7 7 Nordeste 15 Norte 0 -- -- 78
2019-04-17 11:00:00 13.2 5 Norte 12 Norte 0 -- -- 90
2019-04-17 10:00:00 12.2 6 Norte 10 Nordeste 0 -- -- 96
2019-04-17 09:00:00 12.1 6 Nordeste 10 Norte 0 -- -- 97
2019-04-17 08:00:00 11.8 3 Norte 10 Nordeste 0 -- -- 96
2019-04-17 07:00:00 12.1 4 Noroeste 9 Nordeste 0 -- -- 92
2019-04-17 06:00:00 12 4 Nordeste 13 Este 0 -- -- 91
2019-04-17 05:00:00 12.1 6 Este 12 Este 0 -- -- 92
2019-04-17 04:00:00 12.1 5 Norte 12 Nordeste 0 -- -- 96
2019-04-17 03:00:00 12.2 4 Norte 10 Norte 0 -- -- 94
2019-04-17 02:00:00 12.4 4 Nordeste 9 Nordeste 0 -- -- 91
2019-04-17 01:00:00 12.2 6 Nordeste 10 Nordeste 0 -- -- 93
2019-04-17 00:00:00 12.2 5 Nordeste 9 Nordeste 0 -- -- 93
2019-04-16 23:00:00 11.9 2 Norte 8 Este 0 -- -- 91
2019-04-16 22:00:00 12.4 4 Sudeste 16 Sudeste 0 -- -- 84
2019-04-16 21:00:00 13.6 6 Sur 14 Sur 0 -- -- 80
2019-04-16 20:00:00 15.4 7 Sur 21 Sur 0 -- -- 70
2019-04-16 19:00:00 17.2 13 Sur 27 Sur 0 -- -- 64
2019-04-16 18:00:00 18 15 Sur 27 Sudeste 0 -- -- 61
2019-04-16 17:00:00 19.3 11 Sur 25 Sur 0 -- -- 59
2019-04-16 16:00:00 19.8 9 Sur 21 Sudoeste 0 -- -- 57
2019-04-16 15:00:00 18.4 11 Nordeste 22 Norte 0 -- -- 63
2019-04-16 14:00:00 17.1 15 Norte 25 Norte 0 -- -- 71
2019-04-16 13:00:00 16.2 11 Norte 19 Norte 0 -- -- 77
2019-04-16 12:00:00 16 11 Nordeste 21 Sudeste 0 -- -- 77
2019-04-16 11:00:00 15.6 4 Nordeste 18 Sudeste 0 -- -- 71
2019-04-16 10:00:00 15 3 Este 17 Norte 0 -- -- 71
2019-04-16 09:00:00 12.3 3 Nordeste 9 Nordeste 0 -- -- 77
2019-04-16 08:00:00 11.2 0 Calma 12 Nordeste 0 -- -- 83
2019-04-16 07:00:00 11.4 4 Norte 10 Este 0 -- -- 84
2019-04-16 06:00:00 10.1 4 Sudeste 7 Sudoeste 0 -- -- 97
2019-04-16 05:00:00 10.8 2 Sudoeste 7 Sudeste 0 -- -- 96
2019-04-16 04:00:00 11.6 3 Norte 10 Nordeste 0 -- -- 96
2019-04-16 03:00:00 12.4 4 Noroeste 10 Noroeste 0 -- -- 96
2019-04-16 02:00:00 12.7 3 Noroeste 10 Noroeste 0 -- -- 96
2019-04-16 01:00:00 12.7 3 Norte 14 Oeste 0 -- -- 96
2019-04-16 00:00:00 13 6 Oeste 12 Oeste 0 -- -- 94
2019-04-15 23:00:00 13.2 3 Norte 11 Norte 0 -- -- 94
2019-04-15 22:00:00 13.3 2 Norte 9 Norte 0 -- -- 93
2019-04-15 21:00:00 13.4 2 Noroeste 9 Norte 0 -- -- 92
2019-04-15 20:00:00 13.7 7 Norte 15 Nordeste 0 -- -- 90
2019-04-15 19:00:00 14.2 8 Nordeste 17 Norte 0 -- -- 88
2019-04-15 18:00:00 14.1 9 Norte 16 Norte 0 -- -- 91
2019-04-15 17:00:00 15.6 5 Nordeste 17 Noroeste 0 -- -- 78
2019-04-15 16:00:00 16.5 7 Nordeste 17 Nordeste 0 -- -- 74
2019-04-15 15:00:00 15.6 8 Nordeste 17 Nordeste 0 -- -- 77
2019-04-15 14:00:00 15.1 9 Nordeste 19 Norte 0 -- -- 80
2019-04-15 13:00:00 14.5 8 Norte 16 Norte 0 -- -- 82
2019-04-15 12:00:00 13.6 6 Norte 14 Nordeste 0 -- -- 87
2019-04-15 11:00:00 13 8 Nordeste 14 Nordeste 0 -- -- 91
2019-04-15 10:00:00 13.4 6 Norte 12 Norte 0 -- -- 92
2019-04-15 09:00:00 12.7 4 Norte 10 Nordeste 0 -- -- 95
2019-04-15 08:00:00 11 0 Calma 6 Oeste 0 -- -- 98
2019-04-15 07:00:00 10.7 3 Norte -- -- 0 -- -- 94
2019-04-15 06:00:00 -- -- -- -- -- 0 -- -- --
2019-04-15 05:00:00 -- 0 Calma 6 Sur 0 -- -- --
2019-04-15 04:00:00 11.8 0 Calma 8 Oeste 0 -- -- 88
2019-04-15 03:00:00 12.6 0 Calma 6 Oeste 0 -- -- 82
2019-04-15 02:00:00 14.4 0 Calma 12 Norte 0 -- -- 77
2019-04-15 01:00:00 16.2 3 Norte 10 Norte 0 -- -- 67
2019-04-15 00:00:00 15.9 2 Oeste 6 Nordeste 0 -- -- 66
2019-04-14 23:00:00 18.4 2 Nordeste 9 Sur 0 -- -- 58
2019-04-14 22:00:00 18.1 5 Sur 8 Sudeste 0 -- -- 56
2019-04-14 21:00:00 -- -- -- -- -- 0 -- -- --
2019-04-14 20:00:00 25.3 3 Noroeste 18 Noroeste 0 -- -- 32
2019-04-14 19:00:00 27.1 6 Noroeste 23 Oeste 0 -- -- 30
2019-04-14 18:00:00 27.5 8 Noroeste 18 Noroeste 0 -- -- 29
2019-04-14 17:00:00 27.7 7 Noroeste 23 Noroeste 0 -- -- 29
2019-04-14 16:00:00 26.8 9 Noroeste 26 Noroeste 0 -- -- 28
2019-04-14 15:00:00 26.1 9 Noroeste 26 Noroeste 0 -- -- 24
2019-04-14 14:00:00 25.3 9 Noroeste 24 Noroeste 0 -- -- 29
2019-04-14 13:00:00 24 12 Noroeste 24 Noroeste 0 -- -- 31
2019-04-14 12:00:00 22.2 7 Noroeste 18 Noroeste 0 -- -- 34
2019-04-14 11:00:00 19.8 6 Noroeste 22 Noroeste 0 -- -- 41
2019-04-14 10:00:00 17.9 8 Noroeste 24 Oeste 0 -- -- 44
2019-04-14 09:00:00 15.8 10 Noroeste 27 Oeste 0 -- -- 45
2019-04-14 08:00:00 14.8 8 Norte 21 Oeste 0 -- -- 41
2019-04-14 07:00:00 14 8 Nordeste 13 Norte 0 -- -- 39
2019-04-14 06:00:00 13.3 6 Nordeste 11 Norte 0 -- -- 46
2019-04-14 05:00:00 12 3 Norte 8 Norte 0 -- -- 47
2019-04-14 04:00:00 12.2 0 Calma 9 Noroeste 0 -- -- 43
2019-04-14 03:00:00 11.9 0 Calma 8 Este 0 -- -- 52
2019-04-14 02:00:00 11.4 3 Este 9 Este 0 -- -- 60
2019-04-14 01:00:00 11.2 3 Este 8 Sudeste 0 -- -- 61
2019-04-14 00:00:00 10.9 5 Sur 10 Sudeste 0 -- -- 55
2019-04-13 23:00:00 11.1 3 Sur 7 Sur 0 -- -- 60
2019-04-13 22:00:00 12.7 4 Sudeste 13 Sur 0 -- -- 48
2019-04-13 21:00:00 14.6 11 Sur 23 Sur 0 -- -- 45
2019-04-13 20:00:00 17.8 14 Sur 27 Sudeste 0 -- -- 41
2019-04-13 19:00:00 19.7 12 Sur 21 Sur 0 -- -- 36
2019-04-13 18:00:00 21.2 12 Sur 20 Sudeste 0 -- -- 39
2019-04-13 17:00:00 20.3 10 Norte 19 Norte 0 -- -- 37
2019-04-13 16:00:00 20.5 9 Norte 18 Nordeste 0 -- -- 32
2019-04-13 15:00:00 20.1 8 Nordeste 22 Norte 0 -- -- 31
2019-04-13 14:00:00 19.2 12 Nordeste 25 Nordeste 0 -- -- 33
2019-04-13 13:00:00 18.8 10 Norte 24 Noroeste 0 -- -- 32
2019-04-13 12:00:00 18.8 9 Oeste 20 Oeste 0 -- -- 34
2019-04-13 11:00:00 16.1 5 Este 11 Este 0 -- -- 39
2019-04-13 10:00:00 13.3 3 Oeste 13 Noroeste 0 -- -- 56
2019-04-13 09:00:00 6.9 3 Este 7 Sudeste 0 -- -- 85
2019-04-13 08:00:00 6.4 3 Sur 6 Sudeste 0 -- -- 84
2019-04-13 07:00:00 7.1 4 Sudeste 10 Sur 0 -- -- 83
2019-04-13 06:00:00 6.5 2 Sur 7 Sudeste 0 -- -- 87
2019-04-13 05:00:00 7.3 0 Calma 8 Sur 0 -- -- 85
2019-04-13 04:00:00 8.4 4 Sur 11 Sur 0 -- -- 82
2019-04-13 03:00:00 8.1 0 Calma 6 Sudoeste 0 -- -- 84
2019-04-13 02:00:00 9.3 5 Sur 9 Sur 0 -- -- 76
2019-04-13 01:00:00 11.1 2 Nordeste 6 Norte 0 -- -- 72
2019-04-13 00:00:00 11 3 Sur 11 Sur 0 -- -- 69
2019-04-12 23:00:00 12.1 6 Sur 11 Sur 0 -- -- 63
2019-04-12 22:00:00 12 4 Sur 13 Sur 0 -- -- 65
2019-04-12 21:00:00 14.3 8 Sur 22 Sudeste 0 -- -- 57
2019-04-12 20:00:00 15.7 14 Sur 27 Sur 0 -- -- 52
2019-04-12 19:00:00 17.2 15 Sur 30 Sur 0 -- -- 46
2019-04-12 18:00:00 18.1 18 Sur 28 Sur 0 -- -- 42
2019-04-12 17:00:00 18.8 14 Sur 24 Sur 0 -- -- 40
2019-04-12 16:00:00 19.3 12 Sur 27 Sur 0 -- -- 40
2019-04-12 15:00:00 18.1 8 Nordeste 20 Norte 0 -- -- 44
2019-04-12 14:00:00 17.6 7 Nordeste 16 Noroeste 0 -- -- 40
2019-04-12 13:00:00 17.4 4 Sur 12 Norte 0 -- -- 41
2019-04-12 12:00:00 15.1 7 Noroeste 13 Noroeste 0 -- -- 46
2019-04-12 11:00:00 13.6 5 Oeste 14 Oeste 0 -- -- 53
2019-04-12 10:00:00 11.3 5 Oeste 13 Oeste 0 -- -- 60
2019-04-12 09:00:00 7.9 2 Sudeste 8 Sudoeste 0 -- -- 70
2019-04-12 08:00:00 7.6 0 Calma 9 Noroeste 0 -- -- 72
2019-04-12 07:00:00 6.7 0 Calma 6 Este 0 -- -- 75
2019-04-12 06:00:00 6.7 0 Calma 6 Sudeste 0 -- -- 75
2019-04-12 05:00:00 6.5 2 Sudeste 6 Sudeste 0 -- -- 79
2019-04-12 04:00:00 7.1 0 Calma 6 Nordeste 0 -- -- 84
2019-04-12 03:00:00 9.3 3 Norte 17 Noroeste 0 -- -- 76
2019-04-12 02:00:00 10.3 9 Norte 18 Norte 0 -- -- 64
2019-04-12 01:00:00 7.4 0 Calma 4 Este 0 -- -- 87
2019-04-12 00:00:00 9.1 0 Calma 6 Este 0 -- -- 82
2019-04-11 23:00:00 9.3 0 Calma 6 Sudeste 0 -- -- 79
2019-04-11 22:00:00 10.6 0 Calma 6 Sur 0 -- -- 78
2019-04-11 21:00:00 13.4 3 Sudeste -- -- 0 -- -- 66
2019-04-11 20:00:00 17.1 3 Sudoeste 14 Sur 0 -- -- 54
2019-04-11 19:00:00 18.9 5 Sudeste 18 Sur 0 -- -- 43
2019-04-11 18:00:00 18.7 12 Sur 23 Sudeste 0 -- -- 44
2019-04-11 17:00:00 19.7 13 Sur 24 Sur 0 -- -- 42
2019-04-11 16:00:00 20.5 10 Sudeste 21 Noroeste 0 -- -- 36
2019-04-11 15:00:00 18.6 8 Noroeste 21 Oeste 0 -- -- 36
2019-04-11 14:00:00 17.6 5 Noroeste 18 Noroeste 0 -- -- 42
2019-04-11 13:00:00 17.4 6 Noroeste 18 Noroeste 0 -- -- 45
2019-04-11 12:00:00 16 8 Oeste 14 Oeste 0 -- -- 46
2019-04-11 11:00:00 13.1 8 Noroeste 21 Oeste 0 -- -- 58
2019-04-11 10:00:00 11 4 Noroeste 17 Noroeste 0 -- -- 64
2019-04-11 09:00:00 8.4 4 Norte 13 Noroeste 0 -- -- 72
2019-04-11 08:00:00 6.4 0 Calma 6 Sur 0 -- -- 82
2019-04-11 07:00:00 6.7 2 Nordeste 6 Sur 0 -- -- 80
2019-04-11 06:00:00 7.2 2 Sudeste 16 Sudeste 0 -- -- 79
2019-04-11 05:00:00 7.6 4 Sur 8 Sur 0 -- -- 78
2019-04-11 04:00:00 8.6 3 Sur 12 Nordeste 0 -- -- 72
2019-04-11 03:00:00 9.1 5 Este 14 Este 0 -- -- 69
2019-04-11 02:00:00 8 0 Calma 5 Norte 0 -- -- 75
2019-04-11 01:00:00 7.7 0 Calma 5 Nordeste 0 -- -- 80
2019-04-11 00:00:00 7.6 2 Este 9 Nordeste 0 -- -- 80
2019-04-10 23:00:00 7.8 5 Norte 7 Norte 0 -- -- 86
2019-04-10 22:00:00 9.2 3 Norte 12 Norte 0 -- -- 80
2019-04-10 21:00:00 11.2 7 Norte 12 Norte 0 -- -- 68
2019-04-10 20:00:00 13.6 8 Norte 16 Norte 0 -- -- 54
2019-04-10 19:00:00 15 10 Noroeste 27 Norte 0 -- -- 51
2019-04-10 18:00:00 15 4 Oeste 21 Norte 0 -- -- 57
2019-04-10 17:00:00 12.4 3 Sur 47 Noroeste 1.2 -- -- 81
2019-04-10 16:00:00 18 14 Noroeste 34 Noroeste 0 -- -- 42
2019-04-10 15:00:00 16.4 15 Noroeste 29 Norte 0 -- -- 47
2019-04-10 14:00:00 17.3 9 Noroeste 26 Noroeste 0 -- -- 45
2019-04-10 13:00:00 16.2 14 Noroeste 37 Noroeste 0 -- -- 50
2019-04-10 12:00:00 14.9 15 Noroeste 34 Noroeste 0 -- -- 54
2019-04-10 11:00:00 13.1 20 Norte 35 Noroeste 0 -- -- 58
2019-04-10 10:00:00 11.8 18 Noroeste 33 Noroeste 0 -- -- 65
2019-04-10 09:00:00 9.8 13 Noroeste 26 Noroeste 0 -- -- 73
2019-04-10 08:00:00 9.6 14 Norte 24 Norte 0 -- -- 71
2019-04-10 07:00:00 9.7 10 Norte 25 Norte 0 -- -- 71
2019-04-10 06:00:00 9.9 9 Norte 27 Norte 0 -- -- 72
2019-04-10 05:00:00 10.1 10 Norte 20 Norte 0 -- -- 71
2019-04-10 04:00:00 10.6 9 Norte 23 Noroeste 0 -- -- 69
2019-04-10 03:00:00 11 12 Norte 31 Noroeste 0 -- -- 67
2019-04-10 02:00:00 11 10 Norte 21 Norte 0 -- -- 64
2019-04-10 01:00:00 10.6 6 Norte 18 Norte 0 -- -- 62
2019-04-10 00:00:00 10.9 8 Norte 21 Norte 0 -- -- 61
2019-04-09 23:00:00 10.8 9 Norte 29 Norte 0 -- -- 64
2019-04-09 22:00:00 10.4 12 Norte 34 Noroeste 0 -- -- 73
2019-04-09 21:00:00 11.8 13 Norte 27 Noroeste 0 -- -- 72
2019-04-09 20:00:00 12 4 Este 18 Oeste 0 -- -- 72
2019-04-09 19:00:00 11 3 Norte 46 Noroeste 0.8 -- -- 84
2019-04-09 18:00:00 16.3 12 Noroeste 35 Noroeste 0 -- -- 50
2019-04-09 17:00:00 14.2 15 Noroeste 42 Oeste 0 -- -- 53
2019-04-09 16:00:00 17.9 15 Noroeste 50 Noroeste 0 -- -- 39
2019-04-09 15:00:00 16.5 22 Noroeste 44 Noroeste 0 -- -- 42
2019-04-09 14:00:00 16.6 20 Noroeste 41 Noroeste 0 -- -- 43
2019-04-09 13:00:00 15.6 20 Noroeste 45 Noroeste 0 -- -- 47
2019-04-09 12:00:00 14.4 17 Noroeste 38 Noroeste 0 -- -- 53
2019-04-09 11:00:00 13.4 22 Noroeste 40 Noroeste 0 -- -- 57
2019-04-09 10:00:00 12.5 22 Noroeste 42 Noroeste 0 -- -- 60
2019-04-09 09:00:00 10.8 10 Norte 31 Norte 0 -- -- 69
2019-04-09 08:00:00 10.7 15 Norte 33 Noroeste 0 -- -- 67
2019-04-09 07:00:00 11.1 12 Norte 25 Norte 0 -- -- 65
2019-04-09 06:00:00 11.6 13 Norte 23 Norte 0 -- -- 64
2019-04-09 05:00:00 12.2 11 Norte 26 Noroeste 0 -- -- 65
2019-04-09 04:00:00 13.7 7 Noroeste 27 Oeste 0 -- -- 61
2019-04-09 03:00:00 13.9 6 Oeste 19 Sudoeste 0 -- -- 61
2019-04-09 02:00:00 13.7 5 Norte 13 Norte 0 -- -- 61
2019-04-09 01:00:00 14.1 4 Sudoeste 15 Sudeste 0 -- -- 64
2019-04-09 00:00:00 14.5 4 Este 20 Sudoeste 0 -- -- 64
2019-04-08 23:00:00 15.1 6 Noroeste 26 Sur 0 -- -- 61
2019-04-08 22:00:00 15.3 13 Sur 23 Sur 0 -- -- 61
2019-04-08 21:00:00 16.4 8 Oeste 26 Oeste 0 -- -- 52
2019-04-08 20:00:00 17.6 4 Oeste 28 Noroeste 0 -- -- 56
2019-04-08 19:00:00 18.7 7 Oeste 25 Noroeste 0 -- -- 49
2019-04-08 18:00:00 19.5 4 Noroeste 20 Oeste 0 -- -- 51
2019-04-08 17:00:00 20.6 6 Noroeste 21 Noroeste 0 -- -- 49
2019-04-08 16:00:00 19.7 9 Noroeste 27 Noroeste 0 -- -- 50
2019-04-08 15:00:00 19.4 14 Noroeste 38 Noroeste 0 -- -- 49
2019-04-08 14:00:00 18.7 14 Noroeste 29 Noroeste 0 -- -- 51
2019-04-08 13:00:00 17.6 17 Noroeste 30 Noroeste 0 -- -- 58
2019-04-08 12:00:00 15.5 11 Noroeste 27 Noroeste 0 -- -- 64
2019-04-08 11:00:00 14.2 6 Oeste 21 Sudoeste 0 -- -- 69
2019-04-08 10:00:00 13.6 6 Oeste 26 Sudoeste 0 -- -- 70
2019-04-08 09:00:00 13.5 6 Noroeste 20 Noroeste 0 -- -- 68
2019-04-08 08:00:00 13.1 8 Oeste 30 Noroeste 0 -- -- 70
2019-04-08 07:00:00 12.7 3 Sur 14 Sudoeste 0 -- -- 71
2019-04-08 06:00:00 12.3 5 Sudoeste 15 Noroeste 0 -- -- 71
2019-04-08 05:00:00 12.4 3 Este 13 Sudoeste 0 -- -- 70
2019-04-08 04:00:00 12.1 3 Este 10 Sudoeste 0 -- -- 68
2019-04-08 03:00:00 12.1 4 Sudoeste 13 Sur 0 -- -- 65
2019-04-08 02:00:00 12.7 2 Este 12 Noroeste 0 -- -- 63
2019-04-08 01:00:00 13 4 Norte 11 Nordeste 0 -- -- 59
2019-04-08 00:00:00 13.4 5 Norte 13 Nordeste 0 -- -- 56
2019-04-07 23:00:00 13.8 6 Nordeste 17 Noroeste 0 -- -- 54
2019-04-07 22:00:00 14.1 6 Norte 19 Nordeste 0 -- -- 50
2019-04-07 21:00:00 14.8 10 Norte 18 Norte 0 -- -- 38
2019-04-07 20:00:00 15 9 Norte 18 Norte 0 -- -- 40
2019-04-07 19:00:00 15.4 13 Norte 29 Noroeste 0 -- -- 37
2019-04-07 18:00:00 17 15 Noroeste 36 Noroeste 0 -- -- 36
2019-04-07 17:00:00 17.6 16 Noroeste 30 Noroeste 0 -- -- 36
2019-04-07 16:00:00 16.3 17 Noroeste 36 Norte 0 -- -- 38
2019-04-07 15:00:00 16 17 Noroeste 37 Noroeste 0 -- -- 41
2019-04-07 14:00:00 15.4 21 Noroeste 46 Noroeste 0 -- -- 43
2019-04-07 13:00:00 14 19 Noroeste 42 Norte 0 -- -- 49
2019-04-07 12:00:00 12.6 21 Noroeste 44 Noroeste 0 -- -- 53
2019-04-07 11:00:00 11.5 21 Noroeste 44 Noroeste 0 -- -- 57
2019-04-07 10:00:00 10.1 14 Noroeste 32 Oeste 0 -- -- 65
2019-04-07 09:00:00 8.5 10 Noroeste 28 Norte 0 -- -- 71
2019-04-07 08:00:00 8.2 11 Norte 23 Norte 0 -- -- 70
2019-04-07 07:00:00 7.6 9 Norte 23 Noroeste 0 -- -- 72
2019-04-07 06:00:00 8 11 Norte 33 Noroeste 0 -- -- 70
2019-04-07 05:00:00 8.3 10 Norte 31 Noroeste 0 -- -- 66
2019-04-07 04:00:00 8.3 10 Norte 26 Noroeste 0 -- -- 68
2019-04-07 03:00:00 8.5 11 Norte 25 Norte 0 -- -- 68
2019-04-07 02:00:00 8.5 9 Norte 25 Oeste 0 -- -- 67
2019-04-07 01:00:00 8.8 9 Oeste 28 Oeste 0 -- -- 65
2019-04-07 00:00:00 9.7 14 Noroeste 37 Noroeste 0 -- -- 62
2019-04-06 23:00:00 10.1 12 Oeste 35 Oeste 0 -- -- 61
2019-04-06 22:00:00 10 5 Norte 19 Noroeste 0 -- -- 61
2019-04-06 21:00:00 11.1 14 Noroeste 27 Noroeste 0 -- -- 62
2019-04-06 20:00:00 12 5 Oeste 23 Noroeste 0 -- -- 58
2019-04-06 19:00:00 12 6 Noroeste 27 Oeste 0 -- -- 57
2019-04-06 18:00:00 11.6 6 Oeste 36 Oeste 0 -- -- 57
2019-04-06 17:00:00 10.8 12 Norte 22 Norte 0.2 -- -- 68
2019-04-06 16:00:00 11.6 5 Norte 18 Noroeste 0.2 -- -- 71
2019-04-06 15:00:00 11.3 7 Noroeste 30 Oeste 0.4 -- -- 71
2019-04-06 14:00:00 13.5 12 Noroeste 36 Noroeste 0 -- -- 55
2019-04-06 13:00:00 13.2 14 Noroeste 34 Norte 0 -- -- 52
2019-04-06 12:00:00 11.5 18 Noroeste 41 Noroeste 0 -- -- 54
2019-04-06 11:00:00 10.8 19 Noroeste 40 Noroeste 0 -- -- 58
2019-04-06 10:00:00 9.6 17 Noroeste 37 Noroeste 0 -- -- 59
2019-04-06 09:00:00 7.7 10 Norte 21 Norte 0 -- -- 70
2019-04-06 08:00:00 7.3 3 Nordeste 32 Noroeste 0 -- -- 73
2019-04-06 07:00:00 7.3 5 Norte 21 Noroeste 0 -- -- 72
2019-04-06 06:00:00 7.9 6 Noroeste 28 Oeste 0 -- -- 68
2019-04-06 05:00:00 7.7 5 Oeste 32 Sudoeste 0 -- -- 69
2019-04-06 04:00:00 8 12 Sudoeste 36 Oeste 0 -- -- 67
2019-04-06 03:00:00 8.7 12 Noroeste 32 Oeste 0 -- -- 62
2019-04-06 02:00:00 8 6 Norte 23 Noroeste 0 -- -- 66
2019-04-06 01:00:00 8.1 12 Noroeste 29 Noroeste 0 -- -- 69
2019-04-06 00:00:00 8.1 5 Sudeste 24 Noroeste 0 -- -- 70
2019-04-05 23:00:00 8.4 4 Sudoeste 18 Noroeste 0 -- -- 74
2019-04-05 22:00:00 8.9 10 Sudoeste 23 Oeste 0 -- -- 82
2019-04-05 21:00:00 8.2 0 Calma 18 Noroeste 0 -- -- 93
2019-04-05 20:00:00 8.6 3 Noroeste 12 Sudoeste 0 -- -- 95
2019-04-05 19:00:00 9 3 Sudoeste 14 Sudoeste 1.8 -- -- 91
2019-04-05 18:00:00 8.7 4 Oeste 18 Noroeste 4.2 -- -- 93
2019-04-05 17:00:00 9.1 12 Norte 40 Oeste 4.2 -- -- 91
2019-04-05 16:00:00 14.7 6 Este 31 Sudeste 0 -- -- 71
2019-04-05 15:00:00 17.1 17 Sur 33 Sur 0 -- -- 54
2019-04-05 14:00:00 18 17 Sur 30 Sur 0 -- -- 51
2019-04-05 13:00:00 17.9 10 Sur 21 Sur 0 -- -- 42
2019-04-05 12:00:00 15.1 4 Sur 15 Sudoeste 0 -- -- 48
2019-04-05 11:00:00 12.6 3 Sudoeste 18 Noroeste 0 -- -- 61
2019-04-05 10:00:00 12.4 6 Noroeste 23 Sudoeste 0 -- -- 61
2019-04-05 09:00:00 10.6 8 Sudoeste 22 Sur 0 -- -- 74
2019-04-05 08:00:00 9.2 11 Sur 18 Sur 0 -- -- 77
2019-04-05 07:00:00 7.8 4 Sur 13 Sur 0 -- -- 83
2019-04-05 06:00:00 7.8 5 Sur 10 Sur 0 -- -- 83
2019-04-05 05:00:00 7.3 4 Sur 7 Sur 0 -- -- 85
2019-04-05 04:00:00 9.8 2 Nordeste -- -- 0 -- -- 74
2019-04-05 03:00:00 -- -- -- -- -- 0 -- -- --
2019-04-05 02:00:00 -- -- -- -- -- 0 -- -- --
2019-04-05 01:00:00 -- -- -- -- -- 0 -- -- --
2019-04-05 00:00:00 -- -- -- -- -- 0 -- -- --
2019-04-04 23:00:00 -- -- -- -- -- 0 -- -- --
2019-04-04 22:00:00 11 13 Sur 25 Sudoeste 0 -- -- 67
2019-04-04 21:00:00 12.1 10 Sur 25 Sudeste 0 -- -- 65
2019-04-04 20:00:00 13.5 12 Sudeste 32 Sur 0 -- -- 61
2019-04-04 19:00:00 15.3 16 Sur 30 Sudeste 0 -- -- 55
2019-04-04 18:00:00 15.6 19 Sudeste 31 Sudeste 0 -- -- 53
2019-04-04 17:00:00 15.1 19 Sur 37 Sur 0 -- -- 56
2019-04-04 16:00:00 16.2 20 Sur 31 Sur 0 -- -- 42
2019-04-04 15:00:00 16.3 9 Noroeste 28 Oeste 0 -- -- 34
2019-04-04 14:00:00 16.7 8 Oeste 22 Noroeste 0 -- -- 36
2019-04-04 13:00:00 14.9 5 Noroeste 18 Noroeste 0 -- -- 35
2019-04-04 12:00:00 12.7 8 Norte 19 Norte 0 -- -- 39
2019-04-04 11:00:00 11.9 4 Norte 14 Noroeste 0 -- -- 55
2019-04-04 10:00:00 10.2 7 Oeste 13 Noroeste 0 -- -- 76
2019-04-04 09:00:00 7.2 3 Sudeste 6 Sudeste 0 -- -- 88
2019-04-04 08:00:00 7 3 Sudeste 5 Sudeste 0 -- -- 85
2019-04-04 07:00:00 8.9 3 Norte 17 Sudeste 0 -- -- 78
2019-04-04 06:00:00 9.5 11 Sur 18 Sur 0 -- -- 71
2019-04-04 05:00:00 9.6 4 Sudeste 17 Este 0 -- -- 71
2019-04-04 04:00:00 9.7 5 Sudeste 14 Este 0 -- -- 71
2019-04-04 03:00:00 9.7 3 Norte 21 Sudeste 0 -- -- 73
2019-04-04 02:00:00 10.2 6 Sudeste 19 Sudeste 0 -- -- 79
2019-04-04 01:00:00 10.4 3 Nordeste 19 Sudeste 0 -- -- 84
2019-04-04 00:00:00 10.6 9 Sudeste 19 Este 0 -- -- 85
2019-04-03 23:00:00 11.1 10 Norte 24 Nordeste 0 -- -- 88
2019-04-03 22:00:00 11.4 12 Norte 30 Nordeste 0 -- -- 91
2019-04-03 21:00:00 14.2 6 Noroeste 33 Nordeste 0 -- -- 80
2019-04-03 20:00:00 19.5 10 Norte 24 Noroeste 0 -- -- 42
2019-04-03 19:00:00 20.2 8 Norte 27 Noroeste 0 -- -- 41
2019-04-03 18:00:00 20.6 10 Noroeste 30 Noroeste 0 -- -- 38
2019-04-03 17:00:00 21 10 Noroeste 25 Noroeste 0 -- -- 39
2019-04-03 16:00:00 21.4 8 Oeste 34 Noroeste 0 -- -- 44
2019-04-03 15:00:00 20.8 10 Noroeste 31 Noroeste 0 -- -- 41
2019-04-03 14:00:00 21.3 10 Noroeste 29 Noroeste 0 -- -- 38
2019-04-03 13:00:00 18.9 4 Noroeste 18 Noroeste 0 -- -- 48
2019-04-03 12:00:00 18.7 5 Norte 20 Norte 0 -- -- 53
2019-04-03 11:00:00 17 7 Noroeste 20 Noroeste 0 -- -- 57
2019-04-03 10:00:00 15.4 6 Oeste 17 Oeste 0 -- -- 61
2019-04-03 09:00:00 12.5 7 Sudoeste 18 Sudoeste 0 -- -- 75
2019-04-03 08:00:00 12 3 Sudeste 23 Sudoeste 0 -- -- 77
2019-04-03 07:00:00 12.1 10 Sudoeste 19 Sudoeste 0 -- -- 77
2019-04-03 06:00:00 10.7 4 Sudeste 8 Sudeste 0 -- -- 83
2019-04-03 05:00:00 10.2 2 Sudeste 7 Sudeste 0 -- -- 86
2019-04-03 04:00:00 11.6 5 Sur 10 Sudoeste 0 -- -- 80
2019-04-03 03:00:00 10.8 2 Sur 8 Sur 0 -- -- 83
2019-04-03 02:00:00 10.8 2 Sudoeste 6 Sudeste 0 -- -- 84
2019-04-03 01:00:00 11.3 4 Sudeste 10 Sur 0 -- -- 83
2019-04-03 00:00:00 11.5 3 Sur 8 Oeste 0 -- -- 84
2019-04-02 23:00:00 11.4 5 Sur 14 Sudoeste 0 -- -- 86
2019-04-02 22:00:00 10.8 9 Sudeste 14 Sur 0 -- -- 89
2019-04-02 21:00:00 11.2 10 Sur 15 Sudoeste 0 -- -- 90
2019-04-02 20:00:00 13.4 8 Sur 21 Sur 0 -- -- 84
2019-04-02 19:00:00 14.2 4 Norte 36 Norte 1 -- -- 76
2019-04-02 18:00:00 17.3 14 Nordeste 35 Nordeste 0 -- -- 64
2019-04-02 17:00:00 19.7 5 Noroeste 13 Noroeste 0 -- -- 52
2019-04-02 16:00:00 19.3 5 Oeste 20 Oeste 0 -- -- 50
2019-04-02 15:00:00 20.1 9 Oeste 21 Noroeste 0 -- -- 52
2019-04-02 14:00:00 19.3 9 Oeste 24 Noroeste 0 -- -- 57
2019-04-02 13:00:00 18.2 13 Oeste 24 Oeste 0 -- -- 67
2019-04-02 12:00:00 16.1 9 Noroeste 22 Noroeste 0 -- -- 73
2019-04-02 11:00:00 14.7 8 Noroeste 16 Oeste 0 -- -- 77
2019-04-02 10:00:00 13.3 8 Noroeste 15 Norte 0 -- -- 84
2019-04-02 09:00:00 11.4 5 Sudoeste 21 Sudoeste 0 -- -- 91
2019-04-02 08:00:00 10.4 8 Sudoeste 17 Sudoeste 0 -- -- 96
2019-04-02 07:00:00 10 0 Calma 6 Sudeste 0 -- -- 98
2019-04-02 06:00:00 9.5 3 Sudeste 10 Sur 0 -- -- 95
2019-04-02 05:00:00 10.1 3 Sudeste 12 Sudeste 0 -- -- 95
2019-04-02 04:00:00 10 5 Sudeste 8 Sudeste 0 -- -- 96
2019-04-02 03:00:00 9.9 6 Sur 16 Sudoeste 0 -- -- 100
2019-04-02 02:00:00 8.5 2 Nordeste 8 Sudeste 0 -- -- 98
2019-04-02 01:00:00 9.2 5 Sur 8 Sudeste 0 -- -- 99
2019-04-02 00:00:00 9.3 3 Sur 10 Sudeste 0 -- -- 98
2019-04-01 23:00:00 9.6 5 Sudeste 9 Sur 0 -- -- 98
2019-04-01 22:00:00 10.3 0 Calma 5 Sur 0 -- -- 96
2019-04-01 21:00:00 11.2 3 Sur 4 Sur 0 -- -- 96
2019-04-01 20:00:00 11.5 0 Calma 7 Nordeste 0 -- -- 94
2019-04-01 19:00:00 11.9 3 Norte 10 Norte 0 -- -- 93
2019-04-01 18:00:00 11.9 5 Norte 11 Nordeste 0 -- -- 92
2019-04-01 17:00:00 11.4 2 Norte 12 Norte 0 -- -- 93
2019-04-01 16:00:00 11.4 5 Norte 10 Norte 0 -- -- 94
2019-04-01 15:00:00 10.8 4 Norte 13 Nordeste 0 -- -- 96
2019-04-01 14:00:00 10.6 5 Norte 21 Norte 0 -- -- 98
2019-04-01 13:00:00 10.8 6 Norte 15 Norte 0.4 -- -- 100
2019-04-01 12:00:00 10.7 4 Norte 20 Norte 6.2 -- -- 100
2019-04-01 11:00:00 10.8 6 Norte 21 Norte 6.8 -- -- 100
2019-04-01 10:00:00 10.4 5 Sur 22 Sudeste 0.6 -- -- 100
2019-04-01 09:00:00 10 3 Oeste 5 Oeste 1.8 -- -- 100
2019-04-01 08:00:00 9.8 0 Calma 9 Oeste 1.4 -- -- 100
2019-04-01 07:00:00 9.8 3 Noroeste 10 Noroeste 0.6 -- -- 100
2019-04-01 06:00:00 10 2 Nordeste 8 Noroeste 1.2 -- -- 100
2019-04-01 05:00:00 10.3 0 Calma 6 Norte 0.6 -- -- 100
2019-04-01 04:00:00 10.5 3 Norte 9 Norte 1.6 -- -- 100
2019-04-01 03:00:00 10.7 4 Noroeste 19 Norte 0.4 -- -- 100
2019-04-01 02:00:00 11 6 Norte 21 Norte 1.6 -- -- 100
2019-04-01 01:00:00 11.1 5 Sudoeste 23 Este 6.8 -- -- 100
2019-04-01 00:00:00 11.1 8 Sur 28 Sudeste 1.8 -- -- 100
2019-03-31 23:00:00 11.1 7 Sudoeste 33 Sudeste 4.2 -- -- 100
2019-03-31 22:00:00 11.3 10 Sur 32 Nordeste 4.4 -- -- 100
2019-03-31 21:00:00 11 7 Oeste 37 Norte 4.2 -- -- 100
2019-03-31 20:00:00 10.9 9 Noroeste 39 Norte 6 -- -- 100
2019-03-31 19:00:00 10.8 9 Noroeste 33 Norte 9 -- -- 100
2019-03-31 18:00:00 10.8 12 Norte 26 Nordeste 4.8 -- -- 99
2019-03-31 17:00:00 11 8 Noroeste 19 Noroeste 4.8 -- -- 97
2019-03-31 16:00:00 11 8 Este 23 Norte 4.2 -- -- 97
2019-03-31 15:00:00 11.1 5 Este 26 Sur 3.8 -- -- 98
2019-03-31 14:00:00 10.7 5 Este 19 Norte 7 -- -- 100
2019-03-31 13:00:00 10.5 7 Norte 23 Norte 8.6 -- -- 100
2019-03-31 12:00:00 10.4 10 Norte 28 Norte 8.2 -- -- 100
2019-03-31 11:00:00 10.1 10 Noroeste 24 Nordeste 5.2 -- -- 100
2019-03-31 10:00:00 9.9 10 Norte 18 Norte 5.6 -- -- 100
2019-03-31 09:00:00 9.6 11 Norte 23 Norte 3.2 -- -- 100
2019-03-31 08:00:00 9.5 7 Norte 15 Norte 3.8 -- -- 99
2019-03-31 07:00:00 9.2 9 Norte 15 Norte 3.4 -- -- 98
2019-03-31 06:00:00 8.9 3 Norte 7 Norte 0.2 -- -- 94
2019-03-31 05:00:00 8.8 0 Calma 8 Oeste 0 -- -- 91
2019-03-31 03:00:00 9.6 6 Norte 14 Norte 0 -- -- 89
2019-03-31 01:00:00 9.7 6 Norte 17 Norte 0 -- -- 88
2019-03-31 00:00:00 8.9 3 Noroeste 13 Norte 0 -- -- 92
2019-03-30 23:00:00 8.2 5 Nordeste 12 Nordeste 0 -- -- 96
2019-03-30 22:00:00 8 0 Calma 8 Este 0 -- -- 88
2019-03-30 21:00:00 9 3 Este 10 Este 0 -- -- 87
2019-03-30 20:00:00 9.4 0 Calma 13 Sudeste 0 -- -- 82
2019-03-30 19:00:00 11.1 6 Sudeste 18 Sur 0 -- -- 75
2019-03-30 18:00:00 12.9 4 Sudeste 18 Sudeste 0 -- -- 67
2019-03-30 17:00:00 13.2 3 Sudoeste 17 Sur 0 -- -- 70
2019-03-30 16:00:00 12.5 6 Sudeste 18 Sudeste 0 -- -- 74
2019-03-30 15:00:00 11.3 4 Nordeste 18 Nordeste 0 -- -- 80
2019-03-30 14:00:00 11.2 2 Nordeste 18 Norte 0 -- -- 85
2019-03-30 13:00:00 11.7 5 Nordeste 17 Norte 0 -- -- 81
2019-03-30 12:00:00 11.3 10 Norte 19 Norte 0 -- -- 82
2019-03-30 11:00:00 11.1 8 Norte 19 Norte 0 -- -- 80
2019-03-30 10:00:00 10.1 8 Norte 14 Norte 0 -- -- 90
2019-03-30 09:00:00 9.3 2 Norte 8 Noroeste 0 -- -- 94
2019-03-30 08:00:00 7.9 3 Oeste 5 Oeste 0 -- -- 100
2019-03-30 07:00:00 6.3 0 Calma 3 Sudoeste 0 -- -- 100
2019-03-30 06:00:00 5.1 0 Calma 2 Noroeste 0 -- -- 98
2019-03-30 05:00:00 4.5 2 Sudoeste 3 Sudoeste 0 -- -- 96
2019-03-30 04:00:00 5 2 Sur 4 Sudeste 0 -- -- 96
2019-03-30 03:00:00 5.2 2 Sur 5 Sudeste 0 -- -- 96
2019-03-30 02:00:00 5.2 0 Calma 5 Sur 0 -- -- 96
2019-03-30 01:00:00 5.2 0 Calma 4 Sur 0 -- -- 94
2019-03-30 00:00:00 5.9 0 Calma 3 Sur 0 -- -- 94
2019-03-29 23:00:00 6.5 0 Calma 4 Sur 0 -- -- 88
2019-03-29 22:00:00 8.4 0 Calma 9 Sur 0 -- -- 83
2019-03-29 21:00:00 10.4 4 Sur 12 Sur 0 -- -- 81
2019-03-29 20:00:00 10.8 3 Sudeste 11 Nordeste 0 -- -- 80
2019-03-29 19:00:00 11.6 4 Este 16 Este 0 -- -- 76
2019-03-29 18:00:00 12.7 6 Nordeste 18 Sudeste 0 -- -- 71
2019-03-29 17:00:00 14.8 5 Este 17 Sudeste 0 -- -- 60
2019-03-29 16:00:00 14.9 10 Nordeste 26 Nordeste 0 -- -- 58
2019-03-29 15:00:00 14.2 13 Nordeste 29 Norte 0 -- -- 62
2019-03-29 14:00:00 15.1 8 Sur 22 Sur 0 -- -- 60
2019-03-29 13:00:00 15.1 5 Este 24 Sudeste 0 -- -- 61
2019-03-29 12:00:00 14.5 7 Sudeste 17 Sur 0 -- -- 61
2019-03-29 11:00:00 13.1 7 Este 21 Sudeste 0 -- -- 70
2019-03-29 10:00:00 11.1 5 Nordeste 11 Norte 0 -- -- 82
2019-03-29 09:00:00 8.3 0 Calma 6 Sur 0 -- -- 96
2019-03-29 08:00:00 6.1 4 Sudeste 6 Sur 0 -- -- 98
2019-03-29 07:00:00 5.3 4 Sur 7 Sur 0 -- -- 97
2019-03-29 06:00:00 5.2 2 Sur 3 Sur 0 -- -- 94
2019-03-29 05:00:00 4.8 0 Calma 5 Sur 0 -- -- 95
2019-03-29 04:00:00 4.9 3 Sudeste 7 Sur 0 -- -- 94
2019-03-29 03:00:00 4.1 0 Calma 5 Sudeste 0 -- -- 90
2019-03-29 02:00:00 4.4 3 Sur 5 Sur 0 -- -- 86
2019-03-29 01:00:00 5.3 2 Sur 6 Sur 0 -- -- 87
2019-03-29 00:00:00 6.3 0 Calma 4 Norte 0 -- -- 83
2019-03-28 23:00:00 8.3 3 Sudoeste 15 Este 0 -- -- 80
2019-03-28 22:00:00 10.4 10 Sudeste 19 Sudeste 0 -- -- 85
2019-03-28 21:00:00 10.5 9 Sudeste 23 Sudeste 0 -- -- 86
2019-03-28 20:00:00 11.3 3 Este 26 Sur 0 -- -- 69
2019-03-28 19:00:00 12.6 17 Sur 27 Sudeste 0 -- -- 62
2019-03-28 18:00:00 14.5 14 Sur 25 Sur 0 -- -- 50
2019-03-28 17:00:00 15.7 15 Sur 26 Sur 0 -- -- 40
2019-03-28 16:00:00 17.5 10 Sur 23 Sur 0 -- -- 31
2019-03-28 15:00:00 17.8 10 Sur 25 Sur 0 -- -- 28
2019-03-28 14:00:00 17.6 11 Sudeste 23 Sur 0 -- -- 31
2019-03-28 13:00:00 16.5 10 Este 25 Este 0 -- -- 32
2019-03-28 12:00:00 15.9 14 Norte 24 Norte 0 -- -- 26
2019-03-28 11:00:00 14.7 8 Norte 15 Norte 0 -- -- 35
2019-03-28 10:00:00 13.1 3 Norte 9 Oeste 0 -- -- 45
2019-03-28 09:00:00 9.6 4 Noroeste 9 Noroeste 0 -- -- 61
2019-03-28 08:00:00 3.2 2 Norte 5 Sudeste 0 -- -- 86
2019-03-28 07:00:00 3.3 3 Sudeste 8 Sur 0 -- -- 79
2019-03-28 06:00:00 4.1 5 Sur 10 Sur 0 -- -- 80
2019-03-28 05:00:00 3.1 3 Sudeste 6 Sur 0 -- -- 82
2019-03-28 04:00:00 2.6 2 Sudeste 5 Sudoeste 0 -- -- 79
2019-03-28 03:00:00 2.7 3 Sur 6 Sur 0 -- -- 77
2019-03-28 02:00:00 2.6 2 Este 4 Sudeste 0 -- -- 78
2019-03-28 01:00:00 3 3 Sur 5 Sudeste 0 -- -- 75
2019-03-28 00:00:00 3.7 3 Sur 6 Sudeste 0 -- -- 73
2019-03-27 23:00:00 4.8 0 Calma 9 Sur 0 -- -- 76
2019-03-27 22:00:00 6.5 3 Sur 9 Sur 0 -- -- 77
2019-03-27 21:00:00 8.4 6 Sur 14 Sur 0 -- -- 73
2019-03-27 20:00:00 10.6 8 Sudeste 19 Sudeste 0 -- -- 68
2019-03-27 19:00:00 12.3 11 Sudeste 21 Sur 0 -- -- 54
2019-03-27 18:00:00 14.3 10 Sur 21 Sur 0 -- -- 49
2019-03-27 17:00:00 15.8 8 Sur 23 Sur 0 -- -- 36
2019-03-27 16:00:00 15.6 9 Este 24 Este 0 -- -- 37
2019-03-27 15:00:00 15.8 7 Este 23 Nordeste 0 -- -- 34
2019-03-27 14:00:00 15.6 7 Nordeste 30 Norte 0 -- -- 35
2019-03-27 13:00:00 15.7 11 Este 25 Sur 0 -- -- 36
2019-03-27 12:00:00 14.8 12 Norte 27 Norte 0 -- -- 41
2019-03-27 11:00:00 13.3 8 Norte 16 Noroeste 0 -- -- 54
2019-03-27 10:00:00 11.4 4 Nordeste 9 Este 0 -- -- 67
2019-03-27 09:00:00 8.6 2 Nordeste 4 Nordeste 0 -- -- 81
2019-03-27 08:00:00 3.8 0 Calma 5 Sudeste 0 -- -- 92
2019-03-27 07:00:00 4 4 Sur 8 Sur 0 -- -- 91
2019-03-27 06:00:00 3.5 4 Sur 7 Sur 0 -- -- 93
2019-03-27 05:00:00 3.5 3 Sur 6 Sur 0 -- -- 92
2019-03-27 04:00:00 3.5 3 Sur 6 Sur 0 -- -- 89
2019-03-27 03:00:00 3.9 3 Sur 6 Sur 0 -- -- 87
2019-03-27 02:00:00 5.4 3 Sur 5 Sudeste 0 -- -- 79
2019-03-27 01:00:00 8.6 4 Este 14 Este 0 -- -- 68
2019-03-27 00:00:00 8.8 5 Sudeste 15 Sudeste 0 -- -- 69
2019-03-26 23:00:00 9.5 3 Sudeste 13 Este 0 -- -- 67
2019-03-26 22:00:00 9.8 5 Nordeste 20 Sur 0 -- -- 70
2019-03-26 21:00:00 10.4 4 Norte 27 Sur 0 -- -- 73
2019-03-26 20:00:00 10.5 4 Nordeste 34 Sur 0 -- -- 74
2019-03-26 19:00:00 11.5 19 Sur 38 Sudeste 0 -- -- 70
2019-03-26 18:00:00 13.4 15 Sur 32 Sudeste 0 -- -- 60
2019-03-26 17:00:00 14.9 16 Sur 30 Sur 0 -- -- 54
2019-03-26 16:00:00 16.1 15 Sur 31 Sur 0 -- -- 59
2019-03-26 15:00:00 15.8 14 Sur 24 Sudeste 0 -- -- 62
2019-03-26 14:00:00 13.7 6 Norte 22 Norte 0 -- -- 74
2019-03-26 13:00:00 13.2 11 Norte 28 Nordeste 0 -- -- 72
2019-03-26 12:00:00 13.8 14 Norte 33 Norte 0 -- -- 65
2019-03-26 11:00:00 13.1 10 Norte 37 Norte 0 -- -- 65
2019-03-26 10:00:00 13.2 6 Norte 23 Sudeste 0 -- -- 63
2019-03-26 09:00:00 11.7 5 Sudeste 20 Norte 0 -- -- 76
2019-03-26 08:00:00 10.9 4 Nordeste 14 Norte 0 -- -- 78
2019-03-26 07:00:00 9 3 Norte 9 Noroeste 0 -- -- 87
2019-03-26 06:00:00 5.3 2 Noroeste 5 Nordeste 0 -- -- 95
2019-03-26 05:00:00 4.5 0 Calma 5 Sudeste 0 -- -- 89
2019-03-26 04:00:00 5.5 4 Sur 6 Sur 0 -- -- 87
2019-03-26 03:00:00 6.2 4 Sur 6 Sudeste 0 -- -- 83
2019-03-26 02:00:00 6.8 0 Calma 6 Sur 0 -- -- 79
2019-03-26 01:00:00 7.2 4 Sur 5 Sur 0 -- -- 76
2019-03-26 00:00:00 8.6 4 Sudeste 10 Norte 0 -- -- 70
2019-03-25 23:00:00 10.6 4 Norte 9 Norte 0 -- -- 73
2019-03-25 22:00:00 11.6 4 Sur 17 Sudeste 0 -- -- 51
2019-03-25 21:00:00 14 10 Sur 20 Sur 0 -- -- 40
2019-03-25 20:00:00 15.2 9 Sudeste 20 Sudeste 0 -- -- 37
2019-03-25 19:00:00 17.2 5 Sudeste 18 Sudeste 0 -- -- 46
2019-03-25 18:00:00 19.7 12 Sur 21 Sur 0 -- -- 34
2019-03-25 17:00:00 21.1 8 Sur 20 Sudeste 0 -- -- 30
2019-03-25 16:00:00 21.9 10 Sudeste 22 Sur 0 -- -- 27
2019-03-25 15:00:00 21.6 10 Sur 22 Sur 0 -- -- 27
2019-03-25 14:00:00 22.1 8 Sur 29 Este 0 -- -- 26
2019-03-25 13:00:00 19.9 13 Nordeste 21 Norte 0 -- -- 32
2019-03-25 12:00:00 19.1 9 Nordeste 18 Norte 0 -- -- 32
2019-03-25 11:00:00 17.8 8 Nordeste 12 Nordeste 0 -- -- 34
2019-03-25 10:00:00 16.2 4 Norte 8 Nordeste 0 -- -- 41
2019-03-25 09:00:00 11.6 0 Calma 5 Sur 0 -- -- 56
2019-03-25 08:00:00 7.1 0 Calma 9 Sudeste 0 -- -- 75
2019-03-25 07:00:00 6.8 4 Sur 8 Sur 0 -- -- 71
2019-03-25 06:00:00 7.1 4 Sur 7 Sur 0 -- -- 63
2019-03-25 05:00:00 6.8 5 Sudeste 9 Sudeste 0 -- -- 64
2019-03-25 04:00:00 6.2 4 Sudeste 6 Sudeste 0 -- -- 66
2019-03-25 03:00:00 5.8 3 Sur 6 Sur 0 -- -- 71
2019-03-25 02:00:00 6.9 4 Sur 9 Sur 0 -- -- 67
2019-03-25 01:00:00 6.8 3 Sur 8 Sudeste 0 -- -- 66
2019-03-25 00:00:00 8.2 3 Sur 6 Sur 0 -- -- 59